createdAt,value
2023-01-03T00:00:05.473Z,91.15
2023-01-03T00:01:05.334Z,90.94
2023-01-03T00:02:05.452Z,91.25
2023-01-03T00:03:05.328Z,91.36
2023-01-03T00:04:05.402Z,91.46
2023-01-03T00:05:05.369Z,91.42
2023-01-03T00:06:05.315Z,91.56
2023-01-03T00:07:05.314Z,90.84
2023-01-03T00:08:05.296Z,91.56
2023-01-03T00:09:05.266Z,91.87
2023-01-03T00:10:05.272Z,91.77
2023-01-03T00:11:05.270Z,91.97
2023-01-03T00:12:05.293Z,92.18
2023-01-03T00:13:05.268Z,92.59
2023-01-03T00:14:05.284Z,92.74
2023-01-03T00:15:05.248Z,92.43
2023-01-03T00:16:05.259Z,93.05
2023-01-03T00:17:05.251Z,93.46
2023-01-03T00:18:05.247Z,93.46
2023-01-03T00:19:05.229Z,93.77
2023-01-03T00:20:05.231Z,93.56
2023-01-03T00:21:05.220Z,93.66
2023-01-03T00:22:05.255Z,93.77
2023-01-03T00:23:05.208Z,92.84
2023-01-03T00:24:05.196Z,93.35
2023-01-03T00:25:05.189Z,93.35
2023-01-03T00:26:05.165Z,92.94
2023-01-03T00:27:05.159Z,92.94
2023-01-03T00:28:05.177Z,93.05
2023-01-03T00:29:05.129Z,93.05
2023-01-03T00:30:05.142Z,93.35
2023-01-03T00:31:05.160Z,93.11
2023-01-03T00:32:05.110Z,93.21
2023-01-03T00:33:05.115Z,92.59
2023-01-03T00:34:05.105Z,92.59
2023-01-03T00:35:05.719Z,92.59
2023-01-03T00:36:06.092Z,92.69
2023-01-03T00:37:05.085Z,92.38
2023-01-03T00:38:05.070Z,92.38
2023-01-03T00:39:05.088Z,92.29
2023-01-03T00:40:05.059Z,92.80
2023-01-03T00:41:05.048Z,92.38
2023-01-03T00:42:05.047Z,92.69
2023-01-03T00:43:05.053Z,92.49
2023-01-03T00:44:05.069Z,92.49
2023-01-03T00:45:05.029Z,91.77
2023-01-03T00:46:05.082Z,91.87
2023-01-03T00:47:05.022Z,91.87
2023-01-03T00:48:05.008Z,91.77
2023-01-03T00:49:05.007Z,91.36
2023-01-03T00:50:05.009Z,92.12
2023-01-03T00:51:04.988Z,92.63
2023-01-03T00:52:04.972Z,92.63
2023-01-03T00:53:04.972Z,93.05
2023-01-03T00:54:04.987Z,93.56
2023-01-03T00:55:05.127Z,93.56
2023-01-03T00:56:04.952Z,93.46
2023-01-03T00:57:04.937Z,93.05
2023-01-03T00:58:04.946Z,93.46
2023-01-03T00:59:04.942Z,93.56
2023-01-03T01:00:04.940Z,93.25
2023-01-03T01:01:05.049Z,93.50
2023-01-03T01:02:05.193Z,93.71
2023-01-03T01:03:05.006Z,93.15
2023-01-03T01:04:04.962Z,93.46
2023-01-03T01:05:04.887Z,93.40
2023-01-03T01:06:04.896Z,93.77
2023-01-03T01:07:04.869Z,93.71
2023-01-03T01:08:04.878Z,93.81
2023-01-03T01:09:04.867Z,94.02
2023-01-03T01:10:04.873Z,94.12
2023-01-03T01:11:04.860Z,94.37
2023-01-03T01:12:04.849Z,94.37
2023-01-03T01:13:04.908Z,94.43
2023-01-03T01:14:04.874Z,94.53
2023-01-03T01:15:04.829Z,94.53
2023-01-03T01:16:04.831Z,93.91
2023-01-03T01:17:04.816Z,93.81
2023-01-03T01:18:04.806Z,93.71
2023-01-03T01:19:04.797Z,94.02
2023-01-03T01:20:05.802Z,94.27
2023-01-03T01:21:04.773Z,94.27
2023-01-03T01:22:04.798Z,94.32
2023-01-03T01:23:04.783Z,94.27
2023-01-03T01:24:04.771Z,94.12
2023-01-03T01:25:04.760Z,94.27
2023-01-03T01:26:05.751Z,94.23
2023-01-03T01:27:04.767Z,94.78
2023-01-03T01:28:04.728Z,94.99
2023-01-03T01:29:04.723Z,94.78
2023-01-03T01:30:04.737Z,94.78
2023-01-03T01:31:04.747Z,94.82
2023-01-03T01:32:04.719Z,94.89
2023-01-03T01:33:04.696Z,94.68
2023-01-03T01:34:04.683Z,94.99
2023-01-03T01:35:04.691Z,95.34
2023-01-03T01:36:04.669Z,95.24
2023-01-03T01:37:04.662Z,95.14
2023-01-03T01:38:04.671Z,95.03
2023-01-03T01:39:04.663Z,94.99
2023-01-03T01:40:04.643Z,94.31
2023-01-03T01:41:04.647Z,94.31
2023-01-03T01:42:04.649Z,94.62
2023-01-03T01:43:04.641Z,94.62
2023-01-03T01:44:04.612Z,94.46
2023-01-03T01:45:04.627Z,94.52
2023-01-03T01:46:04.618Z,95.03
2023-01-03T01:47:04.595Z,95.34
2023-01-03T01:48:04.585Z,95.14
2023-01-03T01:49:04.580Z,95.24
2023-01-03T01:50:04.593Z,94.93
2023-01-03T01:51:04.571Z,95.03
2023-01-03T01:52:04.571Z,94.52
2023-01-03T01:53:04.562Z,94.52
2023-01-03T01:54:04.551Z,93.85
2023-01-03T01:55:04.558Z,93.65
2023-01-03T01:56:04.531Z,93.24
2023-01-03T01:57:04.545Z,93.34
2023-01-03T01:58:04.534Z,92.72
2023-01-03T01:59:04.515Z,92.41
2023-01-03T02:00:04.519Z,91.89
2023-01-03T02:01:04.589Z,91.58
2023-01-03T02:02:04.706Z,91.79
2023-01-03T02:03:04.656Z,91.79
2023-01-03T02:04:04.496Z,91.38
2023-01-03T02:05:04.494Z,91.79
2023-01-03T02:06:04.487Z,91.79
2023-01-03T02:07:04.471Z,91.79
2023-01-03T02:08:04.444Z,91.58
2023-01-03T02:09:04.449Z,91.79
2023-01-03T02:10:04.474Z,91.79
2023-01-03T02:11:04.423Z,92.41
2023-01-03T02:12:04.444Z,92.31
2023-01-03T02:13:04.429Z,92.61
2023-01-03T02:14:04.445Z,93.07
2023-01-03T02:15:04.402Z,92.76
2023-01-03T02:16:04.478Z,92.76
2023-01-03T02:17:04.429Z,92.66
2023-01-03T02:18:04.419Z,92.66
2023-01-03T02:19:04.385Z,92.76
2023-01-03T02:20:04.354Z,93.07
2023-01-03T02:21:05.358Z,94.52
2023-01-03T02:22:04.354Z,94.93
2023-01-03T02:23:04.368Z,95.18
2023-01-03T02:24:04.359Z,95.39
2023-01-03T02:25:04.364Z,95.49
2023-01-03T02:26:04.327Z,95.70
2023-01-03T02:27:04.327Z,95.90
2023-01-03T02:28:04.350Z,96.11
2023-01-03T02:29:04.309Z,96.73
2023-01-03T02:30:04.321Z,96.94
2023-01-03T02:31:04.325Z,96.62
2023-01-03T02:32:04.300Z,96.11
2023-01-03T02:33:04.319Z,95.49
2023-01-03T02:34:04.303Z,95.70
2023-01-03T02:35:04.278Z,95.49
2023-01-03T02:36:04.264Z,95.07
2023-01-03T02:37:04.267Z,94.77
2023-01-03T02:38:04.309Z,94.67
2023-01-03T02:39:04.243Z,95.07
2023-01-03T02:40:04.328Z,95.02
2023-01-03T02:41:04.252Z,94.67
2023-01-03T02:42:04.226Z,94.67
2023-01-03T02:43:04.220Z,95.12
2023-01-03T02:44:04.232Z,95.22
2023-01-03T02:45:04.270Z,95.18
2023-01-03T02:46:04.281Z,94.92
2023-01-03T02:47:04.264Z,95.12
2023-01-03T02:48:04.180Z,94.81
2023-01-03T02:49:04.276Z,95.22
2023-01-03T02:50:04.168Z,95.43
2023-01-03T02:51:04.172Z,95.74
2023-01-03T02:52:04.153Z,95.53
2023-01-03T02:53:04.149Z,95.74
2023-01-03T02:54:04.134Z,95.74
2023-01-03T02:55:04.143Z,96.05
2023-01-03T02:56:04.193Z,96.56
2023-01-03T02:57:04.128Z,96.47
2023-01-03T02:58:04.117Z,97.08
2023-01-03T02:59:04.104Z,97.04
2023-01-03T03:00:04.162Z,96.73
2023-01-03T03:01:04.094Z,97.14
2023-01-03T03:02:04.170Z,97.29
2023-01-03T03:03:04.232Z,97.29
2023-01-03T03:04:04.107Z,96.83
2023-01-03T03:05:04.130Z,96.56
2023-01-03T03:06:04.054Z,96.98
2023-01-03T03:07:04.057Z,96.73
2023-01-03T03:08:04.082Z,96.42
2023-01-03T03:09:04.041Z,96.62
2023-01-03T03:10:04.038Z,96.31
2023-01-03T03:11:04.024Z,96.27
2023-01-03T03:12:04.016Z,96.58
2023-01-03T03:13:04.010Z,97.04
2023-01-03T03:14:04.016Z,96.17
2023-01-03T03:15:03.984Z,95.86
2023-01-03T03:16:04.050Z,95.86
2023-01-03T03:17:03.996Z,95.86
2023-01-03T03:18:03.973Z,95.45
2023-01-03T03:19:03.969Z,95.76
2023-01-03T03:20:06.839Z,95.30
2023-01-03T03:21:04.991Z,95.03
2023-01-03T03:22:03.949Z,94.89
2023-01-03T03:23:03.945Z,94.82
2023-01-03T03:24:03.935Z,94.93
2023-01-03T03:25:03.933Z,94.99
2023-01-03T03:26:03.933Z,94.89
2023-01-03T03:27:03.917Z,94.99
2023-01-03T03:28:03.932Z,94.78
2023-01-03T03:29:03.901Z,94.93
2023-01-03T03:30:03.907Z,94.93
2023-01-03T03:31:03.955Z,94.93
2023-01-03T03:32:03.883Z,95.14
2023-01-03T03:33:03.882Z,94.93
2023-01-03T03:34:03.864Z,94.93
2023-01-03T03:35:03.856Z,94.82
2023-01-03T03:36:03.860Z,94.93
2023-01-03T03:37:03.858Z,95.03
2023-01-03T03:38:03.841Z,94.62
2023-01-03T03:39:03.841Z,94.62
2023-01-03T03:40:03.829Z,94.78
2023-01-03T03:41:03.829Z,94.99
2023-01-03T03:42:03.831Z,95.09
2023-01-03T03:43:03.806Z,94.52
2023-01-03T03:44:03.804Z,94.47
2023-01-03T03:45:03.796Z,94.57
2023-01-03T03:46:03.788Z,94.27
2023-01-03T03:47:04.880Z,94.06
2023-01-03T03:48:04.794Z,93.96
2023-01-03T03:49:03.766Z,94.37
2023-01-03T03:50:03.765Z,94.47
2023-01-03T03:51:03.754Z,94.47
2023-01-03T03:52:03.760Z,94.06
2023-01-03T03:53:03.772Z,93.75
2023-01-03T03:54:03.749Z,93.90
2023-01-03T03:55:03.751Z,93.54
2023-01-03T03:56:03.718Z,93.44
2023-01-03T03:57:03.713Z,93.03
2023-01-03T03:58:03.727Z,93.13
2023-01-03T03:59:03.710Z,93.54
2023-01-03T04:00:03.861Z,93.34
2023-01-03T04:01:03.710Z,93.18
2023-01-03T04:02:03.814Z,92.51
2023-01-03T04:03:03.839Z,92.31
2023-01-03T04:04:03.797Z,92.82
2023-01-03T04:05:03.681Z,92.76
2023-01-03T04:06:03.679Z,92.35
2023-01-03T04:07:03.662Z,92.31
2023-01-03T04:08:03.646Z,92.61
2023-01-03T04:09:03.660Z,92.61
2023-01-03T04:10:03.658Z,92.41
2023-01-03T04:11:03.633Z,92.21
2023-01-03T04:12:03.624Z,92.31
2023-01-03T04:13:03.630Z,92.31
2023-01-03T04:14:03.609Z,92.72
2023-01-03T04:15:03.632Z,92.31
2023-01-03T04:16:03.769Z,93.44
2023-01-03T04:17:03.607Z,92.93
2023-01-03T04:18:03.584Z,93.79
2023-01-03T04:19:03.573Z,94.27
2023-01-03T04:20:03.590Z,93.85
2023-01-03T04:21:03.568Z,94.27
2023-01-03T04:22:03.565Z,94.47
2023-01-03T04:23:03.546Z,94.27
2023-01-03T04:24:03.540Z,94.27
2023-01-03T04:25:03.553Z,94.57
2023-01-03T04:26:03.537Z,94.06
2023-01-03T04:27:03.523Z,94.23
2023-01-03T04:28:03.519Z,94.47
2023-01-03T04:29:03.507Z,94.47
2023-01-03T04:30:03.501Z,94.68
2023-01-03T04:31:03.502Z,94.99
2023-01-03T04:32:03.639Z,94.93
2023-01-03T04:33:03.488Z,94.89
2023-01-03T04:34:03.507Z,94.99
2023-01-03T04:35:03.483Z,94.89
2023-01-03T04:36:03.478Z,95.40
2023-01-03T04:37:03.468Z,95.20
2023-01-03T04:38:03.453Z,95.55
2023-01-03T04:39:03.446Z,95.30
2023-01-03T04:40:03.450Z,94.99
2023-01-03T04:41:03.438Z,95.40
2023-01-03T04:42:03.429Z,95.30
2023-01-03T04:43:03.437Z,95.50
2023-01-03T04:44:03.406Z,95.40
2023-01-03T04:45:03.407Z,95.61
2023-01-03T04:46:03.566Z,95.61
2023-01-03T04:47:03.404Z,95.76
2023-01-03T04:48:03.387Z,96.69
2023-01-03T04:49:03.394Z,97.09
2023-01-03T04:50:03.362Z,96.37
2023-01-03T04:51:03.370Z,96.37
2023-01-03T04:52:03.426Z,96.99
2023-01-03T04:53:03.385Z,96.99
2023-01-03T04:54:03.371Z,97.41
2023-01-03T04:55:03.354Z,97.20
2023-01-03T04:56:03.338Z,97.55
2023-01-03T04:57:03.317Z,97.09
2023-01-03T04:58:03.354Z,97.41
2023-01-03T04:59:03.315Z,97.25
2023-01-03T05:00:03.330Z,97.25
2023-01-03T05:01:03.344Z,97.66
2023-01-03T05:02:03.430Z,97.55
2023-01-03T05:03:03.315Z,97.25
2023-01-03T05:04:03.390Z,97.66
2023-01-03T05:05:03.301Z,97.81
2023-01-03T05:06:03.282Z,98.49
2023-01-03T05:07:03.297Z,98.07
2023-01-03T05:08:03.272Z,97.66
2023-01-03T05:09:03.245Z,97.71
2023-01-03T05:10:03.304Z,96.98
2023-01-03T05:11:03.238Z,97.29
2023-01-03T05:12:03.232Z,97.45
2023-01-03T05:13:03.213Z,97.29
2023-01-03T05:14:03.222Z,97.25
2023-01-03T05:15:03.236Z,97.25
2023-01-03T05:16:03.255Z,97.39
2023-01-03T05:17:03.262Z,96.94
2023-01-03T05:18:03.202Z,97.08
2023-01-03T05:19:03.189Z,97.60
2023-01-03T05:20:03.185Z,97.71
2023-01-03T05:21:03.179Z,97.60
2023-01-03T05:22:03.162Z,97.60
2023-01-03T05:23:03.178Z,97.29
2023-01-03T05:24:03.166Z,96.98
2023-01-03T05:25:03.153Z,96.88
2023-01-03T05:26:03.160Z,96.98
2023-01-03T05:27:03.133Z,97.08
2023-01-03T05:28:03.128Z,96.88
2023-01-03T05:29:03.125Z,97.29
2023-01-03T05:30:03.106Z,97.08
2023-01-03T05:31:03.100Z,97.50
2023-01-03T05:32:03.136Z,96.98
2023-01-03T05:33:03.092Z,97.19
2023-01-03T05:34:03.090Z,97.02
2023-01-03T05:35:03.071Z,97.23
2023-01-03T05:36:04.058Z,97.29
2023-01-03T05:37:03.058Z,96.41
2023-01-03T05:38:03.055Z,96.92
2023-01-03T05:39:03.060Z,97.13
2023-01-03T05:40:03.040Z,96.09
2023-01-03T05:41:03.029Z,95.99
2023-01-03T05:42:03.050Z,95.89
2023-01-03T05:43:04.028Z,95.78
2023-01-03T05:44:03.055Z,95.68
2023-01-03T05:45:03.020Z,95.73
2023-01-03T05:46:03.090Z,95.83
2023-01-03T05:47:02.995Z,96.24
2023-01-03T05:48:02.992Z,96.24
2023-01-03T05:49:02.987Z,96.03
2023-01-03T05:50:02.997Z,96.14
2023-01-03T05:51:02.983Z,96.34
2023-01-03T05:52:03.000Z,96.19
2023-01-03T05:53:02.957Z,96.08
2023-01-03T05:54:02.948Z,96.19
2023-01-03T05:55:02.957Z,96.29
2023-01-03T05:56:02.932Z,96.29
2023-01-03T05:57:02.932Z,96.08
2023-01-03T05:58:02.922Z,96.29
2023-01-03T05:59:02.920Z,96.39
2023-01-03T06:00:02.910Z,96.29
2023-01-03T06:01:02.909Z,96.19
2023-01-03T06:02:03.022Z,96.19
2023-01-03T06:03:02.949Z,96.29
2023-01-03T06:04:02.958Z,96.39
2023-01-03T06:05:02.914Z,96.29
2023-01-03T06:06:02.871Z,97.53
2023-01-03T06:07:02.856Z,97.42
2023-01-03T06:08:02.859Z,97.11
2023-01-03T06:09:02.850Z,97.26
2023-01-03T06:10:02.853Z,97.11
2023-01-03T06:11:02.829Z,97.42
2023-01-03T06:12:02.831Z,96.91
2023-01-03T06:13:02.817Z,96.59
2023-01-03T06:14:02.816Z,97.32
2023-01-03T06:15:02.823Z,97.22
2023-01-03T06:16:02.821Z,96.70
2023-01-03T06:17:02.853Z,96.49
2023-01-03T06:18:02.947Z,96.55
2023-01-03T06:19:02.800Z,96.86
2023-01-03T06:20:02.778Z,96.66
2023-01-03T06:21:02.777Z,97.01
2023-01-03T06:22:08.695Z,96.76
2023-01-03T06:23:04.762Z,97.17
2023-01-03T06:24:02.746Z,96.97
2023-01-03T06:25:02.751Z,96.03
2023-01-03T06:26:02.743Z,95.94
2023-01-03T06:27:02.728Z,96.24
2023-01-03T06:28:02.724Z,95.83
2023-01-03T06:29:02.710Z,95.62
2023-01-03T06:30:02.699Z,95.83
2023-01-03T06:31:02.742Z,95.83
2023-01-03T06:32:08.921Z,95.21
2023-01-03T06:33:04.680Z,95.42
2023-01-03T06:34:02.680Z,95.52
2023-01-03T06:35:02.670Z,95.52
2023-01-03T06:36:02.674Z,95.31
2023-01-03T06:37:02.700Z,95.52
2023-01-03T06:38:02.663Z,94.79
2023-01-03T06:39:02.641Z,95.42
2023-01-03T06:40:02.652Z,95.00
2023-01-03T06:41:02.630Z,95.10
2023-01-03T06:42:02.680Z,94.90
2023-01-03T06:43:02.633Z,95.10
2023-01-03T06:44:02.605Z,94.69
2023-01-03T06:45:02.604Z,95.00
2023-01-03T06:46:02.652Z,95.00
2023-01-03T06:47:02.630Z,95.00
2023-01-03T06:48:02.588Z,94.69
2023-01-03T06:49:02.566Z,94.44
2023-01-03T06:50:03.579Z,94.07
2023-01-03T06:51:02.567Z,94.48
2023-01-03T06:52:02.577Z,94.28
2023-01-03T06:53:02.558Z,93.97
2023-01-03T06:54:02.548Z,93.97
2023-01-03T06:55:02.529Z,93.97
2023-01-03T06:56:02.534Z,94.28
2023-01-03T06:57:02.553Z,94.28
2023-01-03T06:58:02.529Z,94.12
2023-01-03T06:59:02.510Z,94.07
2023-01-03T07:00:02.501Z,94.07
2023-01-03T07:01:02.597Z,94.07
2023-01-03T07:02:02.689Z,94.59
2023-01-03T07:03:08.889Z,94.59
2023-01-03T07:04:04.531Z,94.07
2023-01-03T07:05:02.468Z,94.84
2023-01-03T07:06:02.468Z,94.84
2023-01-03T07:07:02.460Z,94.18
2023-01-03T07:08:02.478Z,94.07
2023-01-03T07:09:02.449Z,94.12
2023-01-03T07:10:02.435Z,94.01
2023-01-03T07:11:02.465Z,94.01
2023-01-03T07:12:02.431Z,94.84
2023-01-03T07:13:02.560Z,94.32
2023-01-03T07:14:02.436Z,94.32
2023-01-03T07:15:02.407Z,94.32
2023-01-03T07:16:02.505Z,94.01
2023-01-03T07:17:02.411Z,93.80
2023-01-03T07:18:02.397Z,93.33
2023-01-03T07:19:02.394Z,93.95
2023-01-03T07:20:02.382Z,94.37
2023-01-03T07:21:02.377Z,94.68
2023-01-03T07:22:02.364Z,95.19
2023-01-03T07:23:02.355Z,95.19
2023-01-03T07:24:02.366Z,95.24
2023-01-03T07:25:02.340Z,95.49
2023-01-03T07:26:02.342Z,95.28
2023-01-03T07:27:02.356Z,95.34
2023-01-03T07:28:06.535Z,95.75
2023-01-03T07:29:03.364Z,95.65
2023-01-03T07:30:02.322Z,95.65
2023-01-03T07:31:02.416Z,95.80
2023-01-03T07:32:02.313Z,96.21
2023-01-03T07:33:02.293Z,97.29
2023-01-03T07:34:02.314Z,99.22
2023-01-03T07:35:02.285Z,99.99
2023-01-03T07:36:07.612Z,99.99
2023-01-03T07:37:03.267Z,99.99
2023-01-03T07:38:02.268Z,99.99
2023-01-03T07:39:02.256Z,99.99
2023-01-03T07:40:02.283Z,99.99
2023-01-03T07:41:02.248Z,99.99
2023-01-03T07:42:02.240Z,99.99
2023-01-03T07:43:02.229Z,99.99
2023-01-03T07:44:02.213Z,99.99
2023-01-03T07:45:02.269Z,99.99
2023-01-03T07:46:02.285Z,99.99
2023-01-03T07:47:02.215Z,99.99
2023-01-03T07:48:02.210Z,99.99
2023-01-03T07:49:05.180Z,99.99
2023-01-03T07:50:04.214Z,99.99
2023-01-03T07:51:02.192Z,99.99
2023-01-03T07:52:02.194Z,99.99
2023-01-03T07:53:02.170Z,99.99
2023-01-03T07:54:02.161Z,99.99
2023-01-03T07:55:02.168Z,99.99
2023-01-03T07:56:05.216Z,99.99
2023-01-03T07:57:03.143Z,99.99
2023-01-03T07:58:02.173Z,99.99
2023-01-03T07:59:02.212Z,99.99
2023-01-03T08:00:02.178Z,99.99
2023-01-03T08:01:02.129Z,99.99
2023-01-03T08:02:02.268Z,99.99
2023-01-03T08:03:02.181Z,99.99
2023-01-03T08:04:02.119Z,99.98
2023-01-03T08:05:02.147Z,98.28
2023-01-03T08:06:02.099Z,96.80
2023-01-03T08:07:02.098Z,95.46
2023-01-03T08:08:02.093Z,95.52
2023-01-03T08:09:06.060Z,94.09
2023-01-03T08:10:03.069Z,92.65
2023-01-03T08:11:02.068Z,91.78
2023-01-03T08:12:02.054Z,92.57
2023-01-03T08:13:02.048Z,91.80
2023-01-03T08:14:02.049Z,89.70
2023-01-03T08:15:02.035Z,87.51
2023-01-03T08:16:02.049Z,87.04
2023-01-03T08:17:02.019Z,86.21
2023-01-03T08:18:02.019Z,87.04
2023-01-03T08:19:02.005Z,88.00
2023-01-03T08:20:02.048Z,88.45
2023-01-03T08:21:01.994Z,89.01
2023-01-03T08:22:01.985Z,89.77
2023-01-03T08:23:01.976Z,91.21
2023-01-03T08:24:01.978Z,89.73
2023-01-03T08:25:01.962Z,88.10
2023-01-03T08:26:01.987Z,86.48
2023-01-03T08:27:01.940Z,85.35
2023-01-03T08:28:01.950Z,85.52
2023-01-03T08:29:01.932Z,85.13
2023-01-03T08:30:01.957Z,86.96
2023-01-03T08:31:01.982Z,80.63
2023-01-03T08:32:01.931Z,82.67
2023-01-03T08:33:01.919Z,79.73
2023-01-03T08:34:01.905Z,82.17
2023-01-03T08:35:01.901Z,83.58
2023-01-03T08:36:01.938Z,80.62
2023-01-03T08:37:01.949Z,76.98
2023-01-03T08:38:01.892Z,74.27
2023-01-03T08:39:01.876Z,75.99
2023-01-03T08:40:01.860Z,74.91
2023-01-03T08:41:01.883Z,72.31
2023-01-03T08:42:01.848Z,72.31
2023-01-03T08:43:01.867Z,68.04
2023-01-03T08:44:01.855Z,66.99
2023-01-03T08:45:01.816Z,69.89
2023-01-03T08:46:01.832Z,62.73
2023-01-03T08:47:01.956Z,67.30
2023-01-03T08:48:01.815Z,61.53
2023-01-03T08:49:01.807Z,61.57
2023-01-03T08:50:01.811Z,61.07
2023-01-03T08:51:01.815Z,60.06
2023-01-03T08:52:01.866Z,60.94
2023-01-03T08:53:01.782Z,59.20
2023-01-03T08:54:01.772Z,53.14
2023-01-03T08:55:01.773Z,59.92
2023-01-03T08:56:01.759Z,61.43
2023-01-03T08:57:01.784Z,61.27
2023-01-03T08:58:01.753Z,61.01
2023-01-03T08:59:01.743Z,55.66
2023-01-03T09:00:01.714Z,58.11
2023-01-03T09:01:01.733Z,58.92
2023-01-03T09:02:02.014Z,55.55
2023-01-03T09:03:02.005Z,53.72
2023-01-03T09:04:01.732Z,52.64
2023-01-03T09:05:01.696Z,51.04
2023-01-03T09:06:01.707Z,52.04
2023-01-03T09:07:01.700Z,52.34
2023-01-03T09:08:01.691Z,50.26
2023-01-03T09:09:01.676Z,48.66
2023-01-03T09:10:01.684Z,49.08
2023-01-03T09:11:01.665Z,49.22
2023-01-03T09:12:01.676Z,50.86
2023-01-03T09:13:01.655Z,49.80
2023-01-03T09:14:01.650Z,51.20
2023-01-03T09:15:01.631Z,52.47
2023-01-03T09:16:01.683Z,54.13
2023-01-03T09:17:01.692Z,55.16
2023-01-03T09:18:01.623Z,53.98
2023-01-03T09:19:01.634Z,56.38
2023-01-03T09:20:01.653Z,59.36
2023-01-03T09:21:01.625Z,62.85
2023-01-03T09:22:01.584Z,63.33
2023-01-03T09:23:01.579Z,63.13
2023-01-03T09:24:01.566Z,64.34
2023-01-03T09:25:01.600Z,65.86
2023-01-03T09:26:01.564Z,66.00
2023-01-03T09:27:01.545Z,66.17
2023-01-03T09:28:01.532Z,66.31
2023-01-03T09:29:01.539Z,64.69
2023-01-03T09:30:01.558Z,64.25
2023-01-03T09:31:01.559Z,63.67
2023-01-03T09:32:01.570Z,64.79
2023-01-03T09:33:01.511Z,63.58
2023-01-03T09:34:01.516Z,61.90
2023-01-03T09:35:01.544Z,61.76
2023-01-03T09:36:01.479Z,61.43
2023-01-03T09:37:02.486Z,60.01
2023-01-03T09:38:01.478Z,59.48
2023-01-03T09:39:01.472Z,58.13
2023-01-03T09:40:01.510Z,58.36
2023-01-03T09:41:01.459Z,58.44
2023-01-03T09:42:01.466Z,58.56
2023-01-03T09:43:01.456Z,58.54
2023-01-03T09:44:01.432Z,58.31
2023-01-03T09:45:02.477Z,56.36
2023-01-03T09:46:01.496Z,57.12
2023-01-03T09:47:01.481Z,57.47
2023-01-03T09:48:01.413Z,57.65
2023-01-03T09:49:01.413Z,56.94
2023-01-03T09:51:19.534Z,53.93
2023-01-03T09:52:03.401Z,55.87
2023-01-03T09:53:01.382Z,55.09
2023-01-03T09:54:01.372Z,55.07
2023-01-03T09:55:01.359Z,55.54
2023-01-03T09:56:01.357Z,55.41
2023-01-03T09:57:01.383Z,55.85
2023-01-03T09:58:01.338Z,53.83
2023-01-03T09:59:01.335Z,54.03
2023-01-03T10:00:01.331Z,56.07
2023-01-03T10:01:01.356Z,55.90
2023-01-03T10:02:01.524Z,53.60
2023-01-03T10:03:01.368Z,51.81
2023-01-03T10:04:01.299Z,52.34
2023-01-03T10:05:01.295Z,52.64
2023-01-03T10:06:01.297Z,52.79
2023-01-03T10:07:01.296Z,54.89
2023-01-03T10:08:01.301Z,53.52
2023-01-03T10:09:01.270Z,55.62
2023-01-03T10:10:01.266Z,53.65
2023-01-03T10:11:01.284Z,53.27
2023-01-03T10:12:01.260Z,52.64
2023-01-03T10:13:01.266Z,52.94
2023-01-03T10:14:01.259Z,52.22
2023-01-03T10:15:01.234Z,51.91
2023-01-03T10:16:01.289Z,52.31
2023-01-03T10:17:01.294Z,53.50
2023-01-03T10:18:01.208Z,54.05
2023-01-03T10:19:01.213Z,55.49
2023-01-03T10:20:01.190Z,54.18
2023-01-03T10:21:01.205Z,55.49
2023-01-03T10:22:01.212Z,55.42
2023-01-03T10:23:01.219Z,55.77
2023-01-03T10:24:01.196Z,54.21
2023-01-03T10:25:01.167Z,53.40
2023-01-03T10:26:01.165Z,52.92
2023-01-03T10:27:01.179Z,53.85
2023-01-03T10:28:01.162Z,55.40
2023-01-03T10:29:01.184Z,55.19
2023-01-03T10:30:01.158Z,55.29
2023-01-03T10:31:07.687Z,56.02
2023-01-03T10:32:03.181Z,56.15
2023-01-03T10:33:01.130Z,56.38
2023-01-03T10:34:01.122Z,57.20
2023-01-03T10:35:01.130Z,57.53
2023-01-03T10:36:01.207Z,57.96
2023-01-03T10:37:01.134Z,58.36
2023-01-03T10:38:01.084Z,58.84
2023-01-03T10:39:01.083Z,58.00
2023-01-03T10:40:01.094Z,57.17
2023-01-03T10:41:01.083Z,56.23
2023-01-03T10:42:01.092Z,57.55
2023-01-03T10:43:01.058Z,59.50
2023-01-03T10:44:01.070Z,60.01
2023-01-03T10:45:01.062Z,58.54
2023-01-03T10:46:01.098Z,58.74
2023-01-03T10:47:01.040Z,58.94
2023-01-03T10:48:01.111Z,58.44
2023-01-03T10:49:26.697Z,58.56
2023-01-03T10:50:03.023Z,58.31
2023-01-03T10:51:01.002Z,56.99
2023-01-03T10:52:01.040Z,57.29
2023-01-03T10:53:01.036Z,58.84
2023-01-03T10:54:00.999Z,57.93
2023-01-03T10:55:01.009Z,58.23
2023-01-03T10:56:00.990Z,58.64
2023-01-03T10:57:00.979Z,58.67
2023-01-03T10:58:00.977Z,58.56
2023-01-03T10:59:00.965Z,59.78
2023-01-03T11:00:01.012Z,58.71
2023-01-03T11:01:00.996Z,57.67
2023-01-03T11:02:01.272Z,58.65
2023-01-03T11:03:01.141Z,61.82
2023-01-03T11:04:01.036Z,61.88
2023-01-03T11:05:00.934Z,63.30
2023-01-03T11:06:00.929Z,63.46
2023-01-03T11:07:00.933Z,63.64
2023-01-03T11:08:00.908Z,62.26
2023-01-03T11:09:00.905Z,62.93
2023-01-03T11:10:00.904Z,64.75
2023-01-03T11:11:00.903Z,65.80
2023-01-03T11:12:00.910Z,64.72
2023-01-03T11:13:00.881Z,64.73
2023-01-03T11:14:00.880Z,64.92
2023-01-03T11:15:00.891Z,63.45
2023-01-03T11:16:00.936Z,62.56
2023-01-03T11:17:00.907Z,64.23
2023-01-03T11:18:00.843Z,66.94
2023-01-03T11:19:00.894Z,67.08
2023-01-03T11:20:00.829Z,65.83
2023-01-03T11:21:00.872Z,64.55
2023-01-03T11:22:00.817Z,64.45
2023-01-03T11:23:00.817Z,63.34
2023-01-03T11:24:00.809Z,61.72
2023-01-03T11:25:00.836Z,64.61
2023-01-03T11:26:00.837Z,66.33
2023-01-03T11:27:00.852Z,66.30
2023-01-03T11:28:00.782Z,65.59
2023-01-03T11:29:00.806Z,67.02
2023-01-03T11:30:00.761Z,67.43
2023-01-03T11:31:00.789Z,67.49
2023-01-03T11:32:00.805Z,69.89
2023-01-03T11:33:00.765Z,71.66
2023-01-03T11:34:00.735Z,72.34
2023-01-03T11:35:30.417Z,73.50
2023-01-03T11:36:02.725Z,74.97
2023-01-03T11:37:00.744Z,76.10
2023-01-03T11:38:00.704Z,76.03
2023-01-03T11:39:00.744Z,77.61
2023-01-03T11:40:00.699Z,78.36
2023-01-03T11:41:00.694Z,78.36
2023-01-03T11:42:00.732Z,78.36
2023-01-03T11:43:00.716Z,78.67
2023-01-03T11:44:00.677Z,78.46
2023-01-03T11:45:00.665Z,78.05
2023-01-03T11:46:00.709Z,78.46
2023-01-03T11:47:00.662Z,78.63
2023-01-03T11:48:00.645Z,78.42
2023-01-03T11:49:00.641Z,76.95
2023-01-03T11:50:00.641Z,76.95
2023-01-03T11:51:00.616Z,73.06
2023-01-03T11:52:00.613Z,69.26
2023-01-03T11:53:00.616Z,65.63
2023-01-03T11:54:00.600Z,66.00
2023-01-03T11:55:00.591Z,66.10
2023-01-03T11:56:00.588Z,66.91
2023-01-03T11:57:00.586Z,67.18
2023-01-03T11:58:00.596Z,69.29
2023-01-03T11:59:00.575Z,70.31
2023-01-03T12:00:00.560Z,68.44
2023-01-03T12:01:00.563Z,70.98
2023-01-03T12:02:00.688Z,72.21
2023-01-03T12:03:00.626Z,72.72
2023-01-03T12:04:00.644Z,73.98
2023-01-03T12:05:00.532Z,73.06
2023-01-03T12:06:00.536Z,71.43
2023-01-03T12:07:36.838Z,68.88
2023-01-03T12:08:02.550Z,68.37
2023-01-03T12:09:00.497Z,66.65
2023-01-03T12:10:00.491Z,66.78
2023-01-03T12:11:00.479Z,65.63
2023-01-03T12:12:00.480Z,64.45
2023-01-03T12:13:00.501Z,63.64
2023-01-03T12:14:00.482Z,63.71
2023-01-03T12:15:00.754Z,62.41
2023-01-03T12:16:00.496Z,65.19
2023-01-03T12:17:00.447Z,68.64
2023-01-03T12:18:00.492Z,70.57
2023-01-03T12:19:00.502Z,72.17
2023-01-03T12:20:00.446Z,73.50
2023-01-03T12:21:00.797Z,74.56
2023-01-03T12:22:00.451Z,76.14
2023-01-03T12:23:00.403Z,76.89
2023-01-03T12:24:00.413Z,77.84
2023-01-03T12:25:05.195Z,77.64
2023-01-03T12:26:01.391Z,77.17
2023-01-03T12:27:00.371Z,77.78
2023-01-03T12:28:00.369Z,77.58
2023-01-03T12:29:00.361Z,78.23
2023-01-03T12:30:00.374Z,78.43
2023-01-03T12:31:00.411Z,78.64
2023-01-03T12:32:00.414Z,78.57
2023-01-03T12:33:00.348Z,78.43
2023-01-03T12:34:00.327Z,78.74
2023-01-03T12:35:00.335Z,78.43
2023-01-03T12:36:00.391Z,78.60
2023-01-03T12:37:00.314Z,78.12
2023-01-03T12:38:00.303Z,77.26
2023-01-03T12:39:00.289Z,77.13
2023-01-03T12:40:00.334Z,75.18
2023-01-03T12:41:00.330Z,73.61
2023-01-03T12:42:00.271Z,71.63
2023-01-03T12:43:00.261Z,68.30
2023-01-03T12:44:00.260Z,66.61
2023-01-03T12:45:01.253Z,65.72
2023-01-03T12:46:00.348Z,67.89
2023-01-03T12:47:02.952Z,69.93
2023-01-03T12:48:00.218Z,71.70
2023-01-03T12:49:00.234Z,72.48
2023-01-03T12:50:00.205Z,73.44
2023-01-03T12:51:00.209Z,73.44
2023-01-03T12:52:00.199Z,74.80
2023-01-03T12:53:00.185Z,74.70